Time;durP1;ratioP1;P1;durP2;ratioP2;P2;SDS_P1;SDS_P2;PMS_P1;PMS_P2;Temp;Humidity;BMP_temperature;BMP_pressure;BME280_temperature;BME280_humidity;BME280_pressure;Samples;Min_cycle;Max_cycle;Signal;HPM_P1;HPM_P2
2023/08/19 00:00:41;;;;;;;;;;;;;;;21.71;100;101303.3;;;;-74
2023/08/19 00:05:40;;;;;;;;;;;;;;;21.68;100;101301.3;;;;-76
2023/08/19 00:10:44;;;;;;;;;;;;;;;21.65;100;101300.7;;;;-73
2023/08/19 00:14:38;;;;;;;27.2;19;;;;;;;;;;;;;-74
2023/08/19 00:15:42;;;;;;;;;;;;;;;21.61;100;101289.4;;;;-75
2023/08/19 00:20:44;;;;;;;;;;;;;;;21.58;100;101281.2;;;;-76
2023/08/19 00:25:40;;;;;;;;;;;;;;;21.57;100;101283.1;;;;-82
2023/08/19 00:30:40;;;;;;;;;;;;;;;21.59;100;101282.7;;;;-81
2023/08/19 00:35:42;;;;;;;;;;;;;;;21.6;100;101282.7;;;;-80
2023/08/19 00:40:41;;;;;;;;;;;;;;;21.62;100;101283;;;;-81
2023/08/19 00:44:43;;;;;;;28;18.5;;;;;;;;;;;;;-80
2023/08/19 00:50:41;;;;;;;;;;;;;;;21.57;100;101272;;;;-80
2023/08/19 00:55:41;;;;;;;;;;;;;;;21.59;100;101267.7;;;;-82
2023/08/19 01:00:41;;;;;;;;;;;;;;;21.55;100;101262.7;;;;-82
2023/08/19 01:05:48;;;;;;;;;;;;;;;21.53;100;101259.7;;;;-82
2023/08/19 01:10:48;;;;;;;;;;;;;;;21.51;100;101253.3;;;;-81
2023/08/19 01:14:57;;;;;;;26.3;17.2;;;;;;;;;;;;;-82
2023/08/19 01:15:45;;;;;;;;;;;;;;;21.51;100;101248.1;;;;-82
2023/08/19 01:20:43;;;;;;;;;;;;;;;21.52;100;101245.1;;;;-81
2023/08/19 01:25:42;;;;;;;;;;;;;;;21.56;100;101242.4;;;;-80
2023/08/19 01:30:41;;;;;;;;;;;;;;;21.61;100;101225.3;;;;-80
2023/08/19 01:35:41;;;;;;;;;;;;;;;21.71;100;101223;;;;-82
2023/08/19 01:40:41;;;;;;;;;;;;;;;21.72;100;101226.4;;;;-82
2023/08/19 01:44:49;;;;;;;21.3;16.2;;;;;;;;;;;;;-82
2023/08/19 01:45:43;;;;;;;;;;;;;;;21.72;100;101216.3;;;;-82
2023/08/19 01:50:42;;;;;;;;;;;;;;;21.74;100;101213.3;;;;-81
2023/08/19 01:55:40;;;;;;;;;;;;;;;21.75;100;101216.5;;;;-79
2023/08/19 02:00:40;;;;;;;;;;;;;;;21.78;100;101215.2;;;;-81
2023/08/19 02:05:41;;;;;;;;;;;;;;;21.79;100;101209.2;;;;-82
2023/08/19 02:10:42;;;;;;;;;;;;;;;21.79;100;101207.5;;;;-79
2023/08/19 02:14:53;;;;;;;23.4;16.8;;;;;;;;;;;;;-81
2023/08/19 02:15:41;;;;;;;;;;;;;;;21.8;100;101205.9;;;;-82
2023/08/19 02:20:40;;;;;;;;;;;;;;;21.8;100;101199.4;;;;-81
2023/08/19 02:25:40;;;;;;;;;;;;;;;21.83;100;101187;;;;-79
2023/08/19 02:30:40;;;;;;;;;;;;;;;21.79;100;101179;;;;-81
2023/08/19 02:35:41;;;;;;;;;;;;;;;21.82;100;101188.7;;;;-82
2023/08/19 02:40:49;;;;;;;;;;;;;;;21.83;100;101181.5;;;;-79
2023/08/19 02:44:59;;;;;;;21.6;16.2;;;;;;;;;;;;;-81
2023/08/19 02:45:47;;;;;;;;;;;;;;;21.83;100;101185;;;;-80
2023/08/19 02:50:41;;;;;;;;;;;;;;;21.84;100;101182.4;;;;-81
2023/08/19 02:55:43;;;;;;;;;;;;;;;21.9;100;101181.5;;;;-80
2023/08/19 03:00:41;;;;;;;;;;;;;;;21.96;100;101176.1;;;;-81
2023/08/19 03:05:46;;;;;;;;;;;;;;;21.98;100;101173.5;;;;-80
2023/08/19 03:10:42;;;;;;;;;;;;;;;22.04;100;101169;;;;-80
2023/08/19 03:15:01;;;;;;;22.2;16.4;;;;;;;;;;;;;-81
2023/08/19 03:15:41;;;;;;;;;;;;;;;22.06;100;101163.8;;;;-79
2023/08/19 03:20:40;;;;;;;;;;;;;;;22.11;100;101156.3;;;;-79
2023/08/19 03:25:41;;;;;;;;;;;;;;;22.13;100;101154.3;;;;-82
2023/08/19 03:30:41;;;;;;;;;;;;;;;22.09;100;101140.1;;;;-81
2023/08/19 03:35:41;;;;;;;;;;;;;;;22.15;100;101150.9;;;;-81
2023/08/19 03:40:40;;;;;;;;;;;;;;;22.14;100;101146.7;;;;-80
2023/08/19 03:45:05;;;;;;;25.6;18.4;;;;;;;;;;;;;-80
2023/08/19 03:45:41;;;;;;;;;;;;;;;22.08;100;101133.3;;;;-79
2023/08/19 03:50:40;;;;;;;;;;;;;;;22.12;100;101138.4;;;;-80
2023/08/19 03:55:40;;;;;;;;;;;;;;;22.11;100;101146.4;;;;-79
2023/08/19 04:00:41;;;;;;;;;;;;;;;22.11;100;101147.8;;;;-80
2023/08/19 04:05:41;;;;;;;;;;;;;;;22.11;100;101153.5;;;;-80
2023/08/19 04:10:42;;;;;;;;;;;;;;;22.09;100;101128;;;;-81
2023/08/19 04:15:08;;;;;;;28.1;18.7;;;;;;;;;;;;;-80
2023/08/19 04:15:40;;;;;;;;;;;;;;;22.06;100;101131.3;;;;-79
2023/08/19 04:20:44;;;;;;;;;;;;;;;22.06;100;101132.3;;;;-80
2023/08/19 04:25:41;;;;;;;;;;;;;;;22.07;100;101137;;;;-80
2023/08/19 04:30:41;;;;;;;;;;;;;;;22.05;100;101145;;;;-79
2023/08/19 04:35:43;;;;;;;;;;;;;;;22.04;100;101138.6;;;;-80
2023/08/19 04:40:40;;;;;;;;;;;;;;;22;100;101143;;;;-80
2023/08/19 04:45:11;;;;;;;28.5;19.6;;;;;;;;;;;;;-81
2023/08/19 04:45:41;;;;;;;;;;;;;;;21.98;100;101151.4;;;;-80
2023/08/19 04:50:40;;;;;;;;;;;;;;;21.95;100;101150.2;;;;-80
2023/08/19 04:55:40;;;;;;;;;;;;;;;21.95;100;101145.7;;;;-80
2023/08/19 05:00:45;;;;;;;;;;;;;;;21.95;100;101147.7;;;;-81
2023/08/19 05:05:41;;;;;;;;;;;;;;;21.98;100;101141.9;;;;-81
2023/08/19 05:10:41;;;;;;;;;;;;;;;22.04;100;101142.7;;;;-79
2023/08/19 05:15:15;;;;;;;23.6;16.6;;;;;;;;;;;;;-80
2023/08/19 05:15:42;;;;;;;;;;;;;;;22.05;100;101131.4;;;;-83
2023/08/19 05:20:40;;;;;;;;;;;;;;;22.17;100;101141.8;;;;-80
2023/08/19 05:25:40;;;;;;;;;;;;;;;22.21;100;101154.5;;;;-80
2023/08/19 05:30:40;;;;;;;;;;;;;;;22.23;100;101153.6;;;;-80
2023/08/19 05:35:40;;;;;;;;;;;;;;;22.16;100;101152.5;;;;-81
2023/08/19 05:40:41;;;;;;;;;;;;;;;22.16;100;101147.3;;;;-81
2023/08/19 05:45:20;;;;;;;20.5;14.4;;;;;;;;;;;;;-80
2023/08/19 05:45:40;;;;;;;;;;;;;;;22.18;100;101154.9;;;;-79
2023/08/19 05:50:42;;;;;;;;;;;;;;;22.22;100;101162.3;;;;-80
2023/08/19 05:55:42;;;;;;;;;;;;;;;22.25;100;101163;;;;-79
2023/08/19 06:00:40;;;;;;;;;;;;;;;22.28;100;101180.5;;;;-81
2023/08/19 06:05:42;;;;;;;;;;;;;;;22.31;100;101170.7;;;;-81
2023/08/19 06:10:43;;;;;;;;;;;;;;;22.42;100;101176.8;;;;-81
2023/08/19 06:15:21;;;;;;;21;14.7;;;;;;;;;;;;;-82
2023/08/19 06:15:41;;;;;;;;;;;;;;;22.51;100;101192.6;;;;-80
2023/08/19 06:20:41;;;;;;;;;;;;;;;22.61;100;101182.9;;;;-81
2023/08/19 06:25:40;;;;;;;;;;;;;;;22.7;100;101196.3;;;;-80
2023/08/19 06:30:42;;;;;;;;;;;;;;;22.84;100;101190.6;;;;-82
2023/08/19 06:35:41;;;;;;;;;;;;;;;22.91;100;101186.8;;;;-81
2023/08/19 06:40:41;;;;;;;;;;;;;;;23.09;100;101194.6;;;;-80
2023/08/19 06:45:26;;;;;;;18.9;14.1;;;;;;;;;;;;;-82
2023/08/19 06:45:41;;;;;;;;;;;;;;;23.31;100;101209.4;;;;-79
2023/08/19 06:50:41;;;;;;;;;;;;;;;23.46;99.07617;101212.1;;;;-80
2023/08/19 06:55:43;;;;;;;;;;;;;;;23.8;97.65332;101212.5;;;;-81
2023/08/19 07:00:52;;;;;;;;;;;;;;;24.18;94.72754;101216.4;;;;-81
2023/08/19 07:05:41;;;;;;;;;;;;;;;24.95;91.54199;101220.3;;;;-80
2023/08/19 07:10:46;;;;;;;;;;;;;;;24.9;90.59668;101240;;;;-80
2023/08/19 07:15:30;;;;;;;21.3;13.7;;;;;;;;;;;;;-80
2023/08/19 07:15:45;;;;;;;;;;;;;;;24.81;91.43066;101243.3;;;;-78
2023/08/19 07:20:41;;;;;;;;;;;;;;;24.58;92.85254;101227.8;;;;-82
2023/08/19 07:25:41;;;;;;;;;;;;;;;24.35;94.4209;101207.1;;;;-81
2023/08/19 07:30:48;;;;;;;;;;;;;;;24.15;97.28711;101249.3;;;;-80
2023/08/19 07:35:42;;;;;;;;;;;;;;;23.99;96.8457;101237;;;;-83
2023/08/19 07:40:40;;;;;;;;;;;;;;;24.02;97.65527;101238.7;;;;-81
2023/08/19 07:45:35;;;;;;;19.4;14.1;;;;;;;;;;;;;-80
2023/08/19 07:45:46;;;;;;;;;;;;;;;23.89;96.43555;101236.2;;;;-78
2023/08/19 07:50:42;;;;;;;;;;;;;;;24.13;96.17969;101254.2;;;;-81
2023/08/19 07:55:41;;;;;;;;;;;;;;;24.25;96.40039;101260.3;;;;-80
2023/08/19 08:00:41;;;;;;;;;;;;;;;24.35;94.83203;101282.8;;;;-82
2023/08/19 08:05:40;;;;;;;;;;;;;;;24.33;95.32715;101292.5;;;;-80
2023/08/19 08:10:40;;;;;;;;;;;;;;;24.35;94.58008;101294.3;;;;-80
2023/08/19 08:15:38;;;;;;;24.2;15.4;;;;;;;;;;;;;-81
2023/08/19 08:15:48;;;;;;;;;;;;;;;24.35;95.00098;101293.6;;;;-82
2023/08/19 08:20:41;;;;;;;;;;;;;;;24.4;95.10352;101302.2;;;;-80
2023/08/19 08:25:42;;;;;;;;;;;;;;;24.28;96.64453;101314.9;;;;-80
2023/08/19 08:30:41;;;;;;;;;;;;;;;24.18;97.08887;101296;;;;-82
2023/08/19 08:35:44;;;;;;;;;;;;;;;24.12;97.80371;101296.5;;;;-81
2023/08/19 08:40:46;;;;;;;;;;;;;;;24.15;98.86523;101308.2;;;;-81
2023/08/19 08:45:41;;;;;;;;;;;;;;;24.19;99.31543;101323.3;;;;-81
2023/08/19 08:46:04;;;;;;;24.2;15.5;;;;;;;;;;;;;-81
2023/08/19 08:50:41;;;;;;;;;;;;;;;24.34;98.87207;101333.6;;;;-80
2023/08/19 08:55:44;;;;;;;;;;;;;;;24.66;97.41992;101355.6;;;;-81
2023/08/19 09:00:40;;;;;;;;;;;;;;;24.96;94.42285;101366.6;;;;-80
2023/08/19 09:05:42;;;;;;;;;;;;;;;25.21;90.66797;101379;;;;-81
2023/08/19 09:10:48;;;;;;;;;;;;;;;25.51;86.65137;101386.4;;;;-80
2023/08/19 09:15:47;;;;;;;;;;;;;;;25.62;84.1709;101395;;;;-80
2023/08/19 09:16:18;;;;;;;27.9;16.5;;;;;;;;;;;;;-80
2023/08/19 09:21:06;;;;;;;;;;;;;;;;;;;;;
2023/08/19 09:25:43;;;;;;;;;;;;;;;25.68;82.89941;101415.9;;;;-80
2023/08/19 09:30:41;;;;;;;;;;;;;;;25.48;76.89844;101429.3;;;;-80
2023/08/19 09:35:45;;;;;;;;;;;;;;;25.35;76.31543;101439.8;;;;-81
2023/08/19 09:40:59;;;;;;;;;;;;;;;25.56;72.56641;101440.9;;;;-81
2023/08/19 09:46:08;;;;;;;;;;;;;;;25.59;67.66699;101448.7;;;;-81
2023/08/19 09:50:48;;;;;;;;;;;;;;;26.09;66.87891;101463.5;;;;-80
2023/08/19 10:05:50;;;;;;;;;;;;;;;26.4;63.60645;101495.8;;;;-79
2023/08/19 10:11:05;;;;;;;;;;;;;;;26.22;62.01465;101491.1;;;;-79
2023/08/19 10:15:52;;;;;;;;;;;;;;;25.79;63.54395;101495.8;;;;-78
2023/08/19 10:16:04;;;;;;;8.4;3.1;;;;;;;;;;;;;-78
2023/08/19 10:20:43;;;;;;;;;;;;;;;25.57;64.87109;101502.4;;;;-81
2023/08/19 10:25:43;;;;;;;;;;;;;;;25.7;65.87793;101509.9;;;;-81
2023/08/19 10:30:46;;;;;;;;;;;;;;;26.4;62.93848;101500.6;;;;-80
2023/08/19 10:35:54;;;;;;;;;;;;;;;26.38;63.67383;101506.9;;;;-79
2023/08/19 10:41:05;;;;;;;;;;;;;;;26.21;63.97168;101534.8;;;;-79
2023/08/19 10:46:14;;;;;;;11;5.7;;;;;;;;;;;;;-80
2023/08/19 10:50:46;;;;;;;;;;;;;;;26.12;63.22266;101547.4;;;;-79
2023/08/19 10:55:41;;;;;;;;;;;;;;;26.19;64.2793;101552.7;;;;-79
2023/08/19 11:09:09;;;;;;;;;;;;;;;26.48;63.45703;101553.3;;;;-80
2023/08/19 11:14:09;;;;;;;;;;;;;;;26.58;63.78125;101546.3;;;;-81
2023/08/19 11:16:19;;;;;;;10.4;5.4;;;;;;;;;;;;;-84
2023/08/19 11:19:06;;;;;;;;;;;;;;;26.3;65.19434;101557.2;;;;-83
2023/08/19 11:24:06;;;;;;;;;;;;;;;26.03;65.71875;101575.2;;;;-80
2023/08/19 11:29:10;;;;;;;;;;;;;;;26.09;66.82129;101583.1;;;;-81
2023/08/19 11:34:08;;;;;;;;;;;;;;;26.18;67.61719;101594.4;;;;-80
2023/08/19 11:39:07;;;;;;;;;;;;;;;25.77;67.74023;101614.5;;;;-79
2023/08/19 11:44:09;;;;;;;;;;;;;;;25.31;69.56543;101612.3;;;;-80
2023/08/19 11:46:11;;;;;;;9.3;5.6;;;;;;;;;;;;;-81
2023/08/19 11:49:07;;;;;;;;;;;;;;;24.84;71.14355;101658.9;;;;-81
2023/08/19 11:54:08;;;;;;;;;;;;;;;24.62;72.59961;101669.5;;;;-80
2023/08/19 11:59:07;;;;;;;;;;;;;;;24.22;74.27148;101673.9;;;;-80
2023/08/19 12:04:15;;;;;;;;;;;;;;;23.85;76.46191;101680.7;;;;-81
2023/08/19 12:09:08;;;;;;;;;;;;;;;23.48;78.61133;101682.6;;;;-79
2023/08/19 12:14:06;;;;;;;;;;;;;;;23.34;79.94336;101701.2;;;;-81
2023/08/19 12:16:14;;;;;;;19.1;11;;;;;;;;;;;;;-80
2023/08/19 12:19:06;;;;;;;;;;;;;;;23.5;80.20996;101701.4;;;;-79
2023/08/19 12:24:06;;;;;;;;;;;;;;;23.45;80.70313;101717.3;;;;-80
2023/08/19 12:29:06;;;;;;;;;;;;;;;23.6;76.47754;101729;;;;-81
2023/08/19 12:34:06;;;;;;;;;;;;;;;23.03;76.54883;101764.7;;;;-81
2023/08/19 12:39:10;;;;;;;;;;;;;;;22.86;76.83984;101759.5;;;;-80
2023/08/19 12:44:07;;;;;;;;;;;;;;;22.77;73.30371;101778.9;;;;-79
2023/08/19 12:46:20;;;;;;;12.7;3.8;;;;;;;;;;;;;-79
2023/08/19 12:49:06;;;;;;;;;;;;;;;22.64;74.85547;101764.7;;;;-80
2023/08/19 12:54:10;;;;;;;;;;;;;;;22.6;76.51074;101788.5;;;;-81
2023/08/19 12:59:06;;;;;;;;;;;;;;;22.7;76.95996;101788.3;;;;-81
2023/08/19 13:04:06;;;;;;;;;;;;;;;22.79;77.4541;101782.9;;;;-80
2023/08/19 13:09:06;;;;;;;;;;;;;;;22.7;77.94141;101803.7;;;;-80
2023/08/19 13:14:06;;;;;;;;;;;;;;;22.56;74.52441;101804.3;;;;-82
2023/08/19 13:16:23;;;;;;;11.3;3.7;;;;;;;;;;;;;-80
2023/08/19 13:19:06;;;;;;;;;;;;;;;22.05;74.70996;101820.9;;;;-80
2023/08/19 13:24:09;;;;;;;;;;;;;;;21.84;77.05273;101831.7;;;;-79
2023/08/19 13:29:06;;;;;;;;;;;;;;;21.88;76.52637;101848.7;;;;-81
2023/08/19 13:34:06;;;;;;;;;;;;;;;22.07;76.97949;101840.1;;;;-80
2023/08/19 13:39:09;;;;;;;;;;;;;;;22;77.33105;101837.2;;;;-81
2023/08/19 13:44:06;;;;;;;;;;;;;;;21.91;76.57617;101842.8;;;;-80
2023/08/19 13:46:26;;;;;;;18.6;3.6;;;;;;;;;;;;;-80
2023/08/19 13:49:06;;;;;;;;;;;;;;;21.92;77.02148;101853.5;;;;-81
2023/08/19 13:54:07;;;;;;;;;;;;;;;21.96;74.90234;101855.9;;;;-80
2023/08/19 13:59:06;;;;;;;;;;;;;;;22.23;74.08008;101850.3;;;;-81
2023/08/19 14:04:06;;;;;;;;;;;;;;;22.1;73.28613;101855;;;;-80
2023/08/19 14:09:06;;;;;;;;;;;;;;;22.23;71.05176;101855.7;;;;-78
2023/08/19 14:14:07;;;;;;;;;;;;;;;22.32;70.26855;101855.8;;;;-80
2023/08/19 14:16:31;;;;;;;13.4;2.5;;;;;;;;;;;;;-81
2023/08/19 14:19:07;;;;;;;;;;;;;;;22.31;70.99512;101862.6;;;;-79
2023/08/19 14:24:06;;;;;;;;;;;;;;;22.36;71.32422;101871.7;;;;-80
2023/08/19 14:29:06;;;;;;;;;;;;;;;22.72;68.5166;101874.8;;;;-80
2023/08/19 14:34:06;;;;;;;;;;;;;;;23.08;68.05664;101883.8;;;;-80
2023/08/19 14:39:10;;;;;;;;;;;;;;;23.22;67.07227;101881.2;;;;-80
2023/08/19 14:44:07;;;;;;;;;;;;;;;23.72;64.57129;101871.9;;;;-74
2023/08/19 14:46:34;;;;;;;20.7;2.6;;;;;;;;;;;;;-74
2023/08/19 14:49:10;;;;;;;;;;;;;;;24.43;62.13672;101873.7;;;;-73
2023/08/19 14:54:07;;;;;;;;;;;;;;;24.46;61.08398;101881;;;;-73
2023/08/19 14:59:07;;;;;;;;;;;;;;;24.54;61.09375;101890.7;;;;-74
2023/08/19 15:04:09;;;;;;;;;;;;;;;24.36;60.7373;101884.1;;;;-74
2023/08/19 15:09:06;;;;;;;;;;;;;;;24.24;60.18066;101882.5;;;;-74
2023/08/19 15:14:06;;;;;;;;;;;;;;;24.05;61.17871;101888.5;;;;-74
2023/08/19 15:16:39;;;;;;;12.1;2.3;;;;;;;;;;;;;-74
2023/08/19 15:19:09;;;;;;;;;;;;;;;23.78;61.2793;101884;;;;-73
2023/08/19 15:24:06;;;;;;;;;;;;;;;24;60.16113;101883;;;;-74
2023/08/19 15:29:06;;;;;;;;;;;;;;;24.11;59.50879;101886.4;;;;-74
2023/08/19 15:34:07;;;;;;;;;;;;;;;24.22;58.80078;101877.6;;;;-74
2023/08/19 15:39:06;;;;;;;;;;;;;;;24.03;59.41895;101888.6;;;;-73
2023/08/19 15:44:06;;;;;;;;;;;;;;;24.12;59.1084;101886.7;;;;-73
2023/08/19 15:46:43;;;;;;;9.3;1.5;;;;;;;;;;;;;-75
2023/08/19 15:49:06;;;;;;;;;;;;;;;23.99;57.20898;101883.9;;;;-75
2023/08/19 15:54:07;;;;;;;;;;;;;;;23.95;56.82324;101887.2;;;;-73
2023/08/19 15:59:12;;;;;;;;;;;;;;;23.83;58.29102;101882.6;;;;-74
2023/08/19 16:04:06;;;;;;;;;;;;;;;23.78;57.6416;101878.4;;;;-74
2023/08/19 16:09:07;;;;;;;;;;;;;;;23.79;57.01074;101875.1;;;;-74
2023/08/19 16:14:06;;;;;;;;;;;;;;;23.59;56.23926;101884.6;;;;-73
2023/08/19 16:16:49;;;;;;;6.8;1.1;;;;;;;;;;;;;-74
2023/08/19 16:19:06;;;;;;;;;;;;;;;23.53;55.75;101878.3;;;;-74
2023/08/19 16:24:10;;;;;;;;;;;;;;;23.61;56.80469;101894.7;;;;-73
2023/08/19 16:29:06;;;;;;;;;;;;;;;23.41;54.97754;101898;;;;-75
2023/08/19 16:34:06;;;;;;;;;;;;;;;23.23;55.50586;101895.6;;;;-74
2023/08/19 16:39:06;;;;;;;;;;;;;;;23.26;54.39648;101906.1;;;;-73
2023/08/19 16:44:08;;;;;;;;;;;;;;;23.14;54.9209;101915.7;;;;-73
2023/08/19 16:46:52;;;;;;;6.7;1.3;;;;;;;;;;;;;-73
2023/08/19 16:49:06;;;;;;;;;;;;;;;22.96;56.03418;101922.2;;;;-74
2023/08/19 16:54:06;;;;;;;;;;;;;;;23.22;57.66016;101927.2;;;;-74
2023/08/19 16:59:08;;;;;;;;;;;;;;;23.45;57.80566;101924.8;;;;-73
2023/08/19 17:04:06;;;;;;;;;;;;;;;23.34;57.0459;101925.4;;;;-75
2023/08/19 17:09:06;;;;;;;;;;;;;;;23.13;56.33105;101924.7;;;;-74
2023/08/19 17:14:06;;;;;;;;;;;;;;;23.01;58.79199;101931.1;;;;-74
2023/08/19 17:16:55;;;;;;;5.5;1.2;;;;;;;;;;;;;-73
2023/08/19 17:19:06;;;;;;;;;;;;;;;22.9;57.94043;101931;;;;-76
2023/08/19 17:24:06;;;;;;;;;;;;;;;22.79;58.54395;101945.2;;;;-74
2023/08/19 17:29:06;;;;;;;;;;;;;;;22.62;58.53418;101943;;;;-76
2023/08/19 17:34:06;;;;;;;;;;;;;;;22.45;59.37109;101950.3;;;;-75
2023/08/19 17:39:10;;;;;;;;;;;;;;;22.24;60.71387;101944.8;;;;-74
2023/08/19 17:44:08;;;;;;;;;;;;;;;22.23;61.36426;101947.7;;;;-75
2023/08/19 17:47:00;;;;;;;8.4;1.2;;;;;;;;;;;;;-75
2023/08/19 17:49:06;;;;;;;;;;;;;;;22.05;60.55078;101945.7;;;;-73
2023/08/19 17:54:08;;;;;;;;;;;;;;;21.77;60.67285;101951.3;;;;-75
2023/08/19 17:59:08;;;;;;;;;;;;;;;21.68;62.30469;101953.7;;;;-75
2023/08/19 18:04:06;;;;;;;;;;;;;;;21.55;62.70801;101958.9;;;;-74
2023/08/19 18:09:08;;;;;;;;;;;;;;;21.27;63.7627;101963.2;;;;-74
2023/08/19 18:14:07;;;;;;;;;;;;;;;21.16;64.34082;101976.5;;;;-74
2023/08/19 18:17:04;;;;;;;8.6;1.2;;;;;;;;;;;;;-74
2023/08/19 18:19:09;;;;;;;;;;;;;;;21.01;64.78613;101976.2;;;;-75
2023/08/19 18:24:11;;;;;;;;;;;;;;;20.85;65.96777;101978.5;;;;-74
2023/08/19 18:29:06;;;;;;;;;;;;;;;20.76;65.58984;101970.4;;;;-75
2023/08/19 18:34:06;;;;;;;;;;;;;;;20.58;66.16699;101980.8;;;;-75
2023/08/19 18:39:08;;;;;;;;;;;;;;;20.41;67.4707;101985.8;;;;-74
2023/08/19 18:44:06;;;;;;;;;;;;;;;20.24;68.07129;101984.4;;;;-74
2023/08/19 18:47:08;;;;;;;6.8;1.4;;;;;;;;;;;;;-75
2023/08/19 18:49:06;;;;;;;;;;;;;;;20.1;69.05859;101985.6;;;;-76
2023/08/19 18:54:11;;;;;;;;;;;;;;;19.96;70.36328;101992.4;;;;-75
2023/08/19 18:59:10;;;;;;;;;;;;;;;19.78;71.36719;101992.9;;;;-75
2023/08/19 19:04:06;;;;;;;;;;;;;;;19.63;71.3418;101992.7;;;;-74
2023/08/19 19:09:06;;;;;;;;;;;;;;;19.52;72.27539;101999.7;;;;-83
2023/08/19 19:14:06;;;;;;;;;;;;;;;19.32;72.87695;102012.8;;;;-82
2023/08/19 19:17:13;;;;;;;9.5;1.4;;;;;;;;;;;;;-80
2023/08/19 19:19:09;;;;;;;;;;;;;;;19.37;73.16895;102014;;;;-82
2023/08/19 19:24:07;;;;;;;;;;;;;;;19.27;74.10254;102024.5;;;;-81
2023/08/19 19:29:06;;;;;;;;;;;;;;;19.12;74.8584;102028.1;;;;-82
2023/08/19 19:34:08;;;;;;;;;;;;;;;18.96;76.32129;102035.7;;;;-81
2023/08/19 19:39:06;;;;;;;;;;;;;;;18.81;77.58203;102037.8;;;;-79
2023/08/19 19:44:07;;;;;;;;;;;;;;;18.68;78.93555;102041;;;;-80
2023/08/19 19:47:16;;;;;;;14.2;2.8;;;;;;;;;;;;;-80
2023/08/19 19:49:06;;;;;;;;;;;;;;;18.58;80.16895;102044.5;;;;-80
2023/08/19 19:54:06;;;;;;;;;;;;;;;18.52;81.28418;102049.9;;;;-80
2023/08/19 19:59:06;;;;;;;;;;;;;;;18.5;81.83496;102048.9;;;;-80
2023/08/19 20:04:09;;;;;;;;;;;;;;;18.53;82.40137;102053.3;;;;-81
2023/08/19 20:09:08;;;;;;;;;;;;;;;18.58;82.33203;102059.7;;;;-80
2023/08/19 20:14:06;;;;;;;;;;;;;;;18.62;81.7207;102059.7;;;;-79
2023/08/19 20:17:17;;;;;;;9.9;2;;;;;;;;;;;;;-82
2023/08/19 20:19:10;;;;;;;;;;;;;;;18.67;81.42676;102055.7;;;;-81
2023/08/19 20:24:06;;;;;;;;;;;;;;;18.71;81.17285;102054.4;;;;-79
2023/08/19 20:29:06;;;;;;;;;;;;;;;18.65;82.00781;102064.1;;;;-79
2023/08/19 20:34:11;;;;;;;;;;;;;;;18.58;82.12988;102066.3;;;;-80
2023/08/19 20:39:10;;;;;;;;;;;;;;;18.56;81.67383;102065.8;;;;-80
2023/08/19 20:44:20;;;;;;;;;;;;;;;18.48;82.30273;102070.5;;;;-80
2023/08/19 20:47:20;;;;;;;9.1;1.8;;;;;;;;;;;;;-81
2023/08/19 20:49:11;;;;;;;;;;;;;;;18.39;82.99707;102069.4;;;;-80
2023/08/19 20:54:06;;;;;;;;;;;;;;;18.32;83.49902;102077.4;;;;-79
2023/08/19 20:59:06;;;;;;;;;;;;;;;18.2;84.49121;102080.4;;;;-80
2023/08/19 21:04:11;;;;;;;;;;;;;;;18.09;85.01953;102087.1;;;;-80
2023/08/19 21:09:06;;;;;;;;;;;;;;;18.01;85.4873;102088.9;;;;-80
2023/08/19 21:14:06;;;;;;;;;;;;;;;17.9;85.64746;102090;;;;-80
2023/08/19 21:17:23;;;;;;;11.8;1.9;;;;;;;;;;;;;-78
2023/08/19 21:19:09;;;;;;;;;;;;;;;17.83;85.2627;102096.8;;;;-79
2023/08/19 21:24:07;;;;;;;;;;;;;;;17.72;85.50977;102097.8;;;;-80
2023/08/19 21:29:06;;;;;;;;;;;;;;;17.65;85.57617;102096.9;;;;-79
2023/08/19 21:34:12;;;;;;;;;;;;;;;17.61;85.68066;102090.5;;;;-78
2023/08/19 21:39:06;;;;;;;;;;;;;;;17.64;86.0459;102096.2;;;;-81
2023/08/19 21:44:09;;;;;;;;;;;;;;;17.66;85.62305;102088.5;;;;-79
2023/08/19 21:47:26;;;;;;;11.7;2.3;;;;;;;;;;;;;-79
2023/08/19 21:49:07;;;;;;;;;;;;;;;17.69;84.81934;102087.2;;;;-79
2023/08/19 21:54:06;;;;;;;;;;;;;;;17.7;84.56445;102094.7;;;;-81
2023/08/19 21:59:12;;;;;;;;;;;;;;;17.74;84.21191;102091.6;;;;-79
2023/08/19 22:04:17;;;;;;;;;;;;;;;17.71;84.87891;102090.5;;;;-80
2023/08/19 22:09:09;;;;;;;;;;;;;;;17.69;84.6748;102091.4;;;;-80
2023/08/19 22:14:06;;;;;;;;;;;;;;;17.71;84.60938;102086.3;;;;-80
2023/08/19 22:17:31;;;;;;;9.7;1.7;;;;;;;;;;;;;-81
2023/08/19 22:19:06;;;;;;;;;;;;;;;17.72;84.58887;102089.2;;;;-81
2023/08/19 22:24:06;;;;;;;;;;;;;;;17.65;85.38379;102089.6;;;;-79
2023/08/19 22:29:06;;;;;;;;;;;;;;;17.57;84.24805;102095.7;;;;-80
2023/08/19 22:34:06;;;;;;;;;;;;;;;17.49;85.87109;102093.5;;;;-80
2023/08/19 22:39:09;;;;;;;;;;;;;;;17.47;86.58594;102096.4;;;;-80
2023/08/19 22:44:07;;;;;;;;;;;;;;;17.43;87.49707;102096.3;;;;-81
2023/08/19 22:47:34;;;;;;;11.7;2.3;;;;;;;;;;;;;-79
2023/08/19 22:49:08;;;;;;;;;;;;;;;17.42;87.50684;102106.7;;;;-81
2023/08/19 22:54:08;;;;;;;;;;;;;;;17.42;88.12207;102104.3;;;;-79
2023/08/19 22:59:09;;;;;;;;;;;;;;;17.43;88.55176;102100.3;;;;-81
2023/08/19 23:04:06;;;;;;;;;;;;;;;17.43;88.84277;102109;;;;-81
2023/08/19 23:09:06;;;;;;;;;;;;;;;17.39;88.89941;102107.5;;;;-81
2023/08/19 23:14:06;;;;;;;;;;;;;;;17.41;88.43359;102100.8;;;;-81
2023/08/19 23:17:34;;;;;;;9.3;2.2;;;;;;;;;;;;;-82
2023/08/19 23:19:06;;;;;;;;;;;;;;;17.44;88.73242;102095;;;;-80
2023/08/19 23:24:06;;;;;;;;;;;;;;;17.41;89.3418;102105.2;;;;-80
2023/08/19 23:29:06;;;;;;;;;;;;;;;17.38;88.60742;102112.1;;;;-80
2023/08/19 23:34:06;;;;;;;;;;;;;;;17.27;91.88867;102119.7;;;;-80
2023/08/19 23:39:06;;;;;;;;;;;;;;;17.13;93.25977;102111.5;;;;-80
2023/08/19 23:44:07;;;;;;;;;;;;;;;17.04;93.68945;102103.7;;;;-80
2023/08/19 23:47:40;;;;;;;12.6;2.5;;;;;;;;;;;;;-78
2023/08/19 23:49:06;;;;;;;;;;;;;;;17.08;92.32324;102116.7;;;;-81
2023/08/19 23:54:07;;;;;;;;;;;;;;;17.11;92.13867;102120.5;;;;-81
2023/08/19 23:59:08;;;;;;;;;;;;;;;17.08;91.62988;102124.3;;;;-81
